• Join FlightAware (Why Join?)
  • Login
  • US Flag 
03:35PM EDT


 

Airport Tracker/Info


-or-


 

Live Flight TrackerFlight Track Log ✈ AAL971 ✈ 19-Dec-2013 ✈ KMIA - KBOS

Flight Track Log - Related Links

Times and Time Zones

All times are in EST time to prevent confusion due to time zone crossing. See the AAL971 flight status page for this flight to view local times or setup timezone preferences in your user account.

Time Position Orientation Groundspeed Altitude Reporting Facility
EST Latitude Longitude Course Direction KTS MPH feet Rate Location/Type
07:40PM 25.8006 -80.2583 10° North 177 204 1,200  Level Miami Center
07:40PM 25.8011 -80.2422 88° East 162 186 1,700 1,260 Climbing Miami Center
07:41PM 25.8089 -80.1756 83° East 260 299 2,900 1,800 Climbing Miami Center
07:42PM 25.8256 -80.0836 79° East 274 315 5,600 2,520 Climbing Miami Center
07:43PM 25.8708 -80.0086 56° Northeast 315 362 8,400 2,340 Climbing Miami Center
07:44PM 26.3481 -80.0359 57° Northeast  Level Estimated
07:44PM 25.9144 -79.9289 59° Northeast 315 362 10,300  Level Miami Center
07:45PM 26.4586 -79.9848 10° North  Level Estimated
07:45PM 25.9708 -79.8311 57° Northeast 334 384 11,100  Level Miami Center
07:46PM 26.0314 -79.7286 57° Northeast 372 428 13,800 2,460 Climbing Miami Center
07:47PM 26.0981 -79.6261 54° Northeast 391 450 16,100 1,860 Climbing Miami Center
07:53PM 26.7468 -79.2363 54° Northeast 491 565 26,900 1,860 Climbing FlightAware ADS-B (KMCO)
07:54PM 26.8375 -79.1971 21° North 482 555 28,400 1,740 Climbing FlightAware ADS-B (KMCO)
07:54PM 26.9095 -79.1660 21° North 481 554 29,200 1,320 Climbing FlightAware ADS-B (KMCO)
07:55PM 26.9832 -79.1341 21° North 483 556 30,000 1,500 Climbing FlightAware ADS-B (KMCO)
07:56PM 27.0688 -79.0973 21° North 480 552 31,100 1,860 Climbing FlightAware ADS-B (KMCO)
07:56PM 27.1527 -79.0609 21° North 468 539 32,600 2,040 Climbing FlightAware ADS-B (KMCO)
07:57PM 27.2282 -79.0281 21° North 457 526 33,900 1,620 Climbing FlightAware ADS-B (KMCO)
07:58PM 27.3139 -78.9909 21° North 455 524 34,800 1,140 Climbing FlightAware ADS-B (KMCO)
07:58PM 27.3928 -78.9575 21° North 456 525 35,500 960 Climbing FlightAware ADS-B (KMCO)
07:59PM 27.4772 -78.9386 11° North 448 516 36,100 960 Climbing FlightAware ADS-B (KMCO)
08:00PM 27.5691 -78.9256 North 446 513 36,900 600 Climbing FlightAware ADS-B (KMCO)
08:01PM 27.6447 -78.9151 North 448 516 37,000 60 Climbing FlightAware ADS-B (KMCO)
08:01PM 27.7353 -78.9029 North 448 516 37,000  Level FlightAware ADS-B (KMCO)
08:03PM 27.8990 -78.8793 North 447 514 37,000  Level FlightAware ADS-B (KMCO)
08:03PM 27.9640 -78.8702 North 445 512 37,000  Level FlightAware ADS-B (KMCO)
08:04PM 28.0692 -78.8555 North 445 512 37,000  Level FlightAware ADS-B (KMCO)
08:05PM 28.1518 -78.8439 North 446 513 37,000  Level FlightAware ADS-B (KMCO)
08:05PM 28.2164 -78.8347 North 447 514 37,000  Level FlightAware ADS-B (KMCO)
08:06PM 28.3006 -78.8227 North 448 516 37,000  Level FlightAware ADS-B (KMCO)
08:07PM 28.4182 -78.8060 North 449 517 37,000  Level FlightAware ADS-B (KMCO)
08:10PM 28.8718 -78.7413 North 444 511 37,000 -60 Level FlightAware ADS-B (KMCO)
08:11PM 28.9603 -78.7328 North 445 512 36,900 -60 Descending Miami Center
08:12PM 29.0858 -78.7206 North 445 512 36,900  Level Miami Center
08:13PM 29.2028 -78.6989 North 445 512 36,900  Level Miami Center
08:14PM 29.3242 -78.6842 North 440 506 36,900  Level Miami Center
08:15PM 29.4453 -78.6647 North 440 506 36,900  Level Miami Center
08:16PM 29.5686 -78.6500 North 440 506 36,900  Level Miami Center
08:18PM 29.7583 -78.6106 10° North 437 503 36,900  Level Jacksonville Center
08:19PM 29.8853 -78.5978 North 454 522 36,900  Level Jacksonville Center
08:20PM 30.0122 -78.5872 North 451 519 36,900  Level Jacksonville Center
08:21PM 30.1322 -78.5531 14° North 439 505 36,900  Level Jacksonville Center
08:22PM 30.2414 -78.5144 17° North 440 506 37,000  Climbing Jacksonville Center
08:23PM 30.3569 -78.4731 17° North 447 514 37,000  Level Jacksonville Center
08:24PM 30.4808 -78.4336 15° North 454 522 37,000  Level Jacksonville Center
08:25PM 30.6067 -78.3917 16° North 456 525 37,000  Level Jacksonville Center
08:26PM 30.7283 -78.3497 17° North 451 519 37,000  Level Jacksonville Center
08:27PM 30.8478 -78.3075 17° North 451 519 37,000  Level Jacksonville Center
08:28PM 30.9672 -78.2653 17° North 451 519 37,000 -60 Level Jacksonville Center
08:29PM 31.0992 -78.2178 17° North 440 506 36,900 -60 Descending Jacksonville Center
08:30PM 31.2208 -78.1775 16° North 438 504 36,900  Level Jacksonville Center
08:31PM 31.3444 -78.1325 17° North 447 514 36,900  Level Jacksonville Center
08:32PM 31.4642 -78.0947 15° North 452 520 36,900  Level Jacksonville Center
08:33PM 31.5853 -78.0469 19° North 452 520 36,900  Level Jacksonville Center
08:34PM 31.7069 -78.0042 17° North 452 520 36,900  Level Jacksonville Center
08:35PM 31.8306 -77.9658 15° North 452 520 36,900  Level Jacksonville Center
08:36PM 31.9542 -77.9225 17° North 452 520 36,900  Level Jacksonville Center
08:37PM 32.0775 -77.8764 18° North 452 520 36,900  Level Jacksonville Center
08:38PM 32.2014 -77.8403 14° North 452 520 36,900  Level Jacksonville Center
08:39PM 32.3228 -77.7992 16° North 452 520 36,900  Level Jacksonville Center
08:40PM 32.4483 -77.7503 18° North 452 520 36,900  Level Jacksonville Center
08:41PM 32.5758 -77.7061 16° North 457 526 36,900  Level Jacksonville Center
08:42PM 32.6994 -77.6644 16° North 457 526 36,900  Level Jacksonville Center
08:44PM 32.9183 -77.5853 17° North 458 527 36,900  Level Washington Center
08:45PM 33.0442 -77.5386 17° North 463 533 36,900  Level Washington Center
08:46PM 33.1700 -77.4944 16° North 463 533 36,900  Level Washington Center
08:47PM 33.2917 -77.4525 16° North 458 527 36,900  Level Washington Center
08:48PM 33.4156 -77.4053 18° North 458 527 36,900  Level Washington Center
08:49PM 33.5392 -77.3608 17° North 463 533 36,900  Level Washington Center
08:50PM 33.6650 -77.3161 16° North 463 533 36,900  Level Washington Center
08:51PM 33.7886 -77.2711 17° North 463 533 36,900  Level Washington Center
08:52PM 33.9144 -77.2261 17° North 463 533 36,900  Level Washington Center
08:58PM 34.6735 -76.9463 17° North 465 535 37,000  Climbing FlightAware ADS-B
08:59PM 34.8143 -76.8938 17° North 463 533 37,000  Level FlightAware ADS-B
08:59PM 34.8971 -76.8629 17° North 462 532 37,000  Level FlightAware ADS-B
09:00PM 34.9696 -76.8357 17° North 462 532 37,000  Level FlightAware ADS-B
09:01PM 35.1170 -76.7804 17° North 461 531 37,000  Level FlightAware ADS-B
09:02PM 35.2240 -76.7400 17° North 461 531 37,000  Level FlightAware ADS-B
09:04PM 35.4243 -76.6642 17° North 461 531 37,000  Level FlightAware ADS-B
09:04PM 35.5029 -76.6344 17° North 462 532 37,000 -60 Level FlightAware ADS-B
09:06PM 35.6469 -76.5786 17° North 463 533 36,900 -60 Descending Washington Center
09:07PM 35.7683 -76.5342 17° North 463 533 36,900  Level Washington Center
09:08PM 35.8939 -76.4842 18° North 463 533 36,900  Level Washington Center
09:09PM 36.0175 -76.4394 16° North 463 533 36,900  Level Washington Center
09:10PM 36.1389 -76.3919 18° North 458 527 36,900  Level Washington Center
09:14PM 36.6910 -76.1751 18° North 459 528 37,000  Climbing FlightAware ADS-B (KWWD)
09:18PM 37.1463 -75.9953 17° North 460 529 37,000  Level FlightAware ADS-B (KWWD)
09:19PM 37.2610 -75.9496 18° North 457 526 37,000  Level FlightAware ADS-B (KWWD)
09:20PM 37.3396 -75.9183 18° North 454 522 37,000  Level FlightAware ADS-B (KWWD)
09:20PM 37.4162 -75.8874 18° North 453 521 37,000  Level FlightAware ADS-B (KWWD)
09:21PM 37.5032 -75.8527 18° North 443 510 37,000  Level FlightAware ADS-B (KWWD)
09:22PM 37.5845 -75.8200 18° North 443 510 37,000  Level FlightAware ADS-B (KWWD)
09:22PM 37.6645 -75.7878 18° North 443 510 37,000  Level FlightAware ADS-B (KWWD)
09:23PM 37.7328 -75.7604 18° North 442 509 37,000  Level FlightAware ADS-B (KWWD)
09:24PM 37.8225 -75.7240 18° North 442 509 37,000  Level FlightAware ADS-B (KWWD)
09:24PM 37.8987 -75.6929 18° North 442 509 37,000  Level FlightAware ADS-B (KWWD)
09:25PM 37.9823 -75.6589 18° North 441 507 37,000  Level FlightAware ADS-B (KWWD)
09:26PM 38.0792 -75.6194 18° North 448 516 37,000  Level FlightAware ADS-B (KSBY)
09:26PM 38.1510 -75.5902 18° North 448 516 37,000  Level FlightAware ADS-B (KSBY)
09:27PM 38.2155 -75.5638 18° North 442 509 37,000  Level FlightAware ADS-B (KWWD)
09:28PM 38.2934 -75.5318 18° North 442 509 37,000  Level FlightAware ADS-B (KWWD)
09:28PM 38.3386 -75.5113 20° North 458 527 37,000  Level FlightAware ADS-B (KSBY)
09:29PM 38.4137 -75.4605 28° Northeast 469 540 37,000  Level FlightAware ADS-B (KWWD)
09:29PM 38.4622 -75.4248 30° Northeast 467 537 37,000  Level FlightAware ADS-B (KSBY)
09:30PM 38.5636 -75.3501 30° Northeast 466 536 37,000  Level FlightAware ADS-B (KWWD)
09:31PM 38.6298 -75.3012 30° Northeast 466 536 37,000  Level FlightAware ADS-B (KWWD)
09:31PM 38.6817 -75.2629 30° Northeast 466 536 37,000  Level FlightAware ADS-B (KSBY)
09:32PM 38.7478 -75.2139 30° Northeast 467 537 37,000  Level FlightAware ADS-B (KWWD)
09:32PM 38.8177 -75.1620 30° Northeast 468 539 37,000  Level FlightAware ADS-B (KSBY)
09:33PM 38.9169 -75.0883 30° Northeast 469 540 37,000  Level FlightAware ADS-B (KSBY)
09:34PM 38.9889 -75.0345 30° Northeast 470 541 37,000  Level FlightAware ADS-B (KSBY)
09:34PM 39.0515 -74.9877 30° Northeast 470 541 37,000  Level FlightAware ADS-B
09:35PM 39.1157 -74.9397 30° Northeast 464 534 37,000  Level FlightAware ADS-B (KWWD)
09:35PM 39.1336 -74.9263 30° Northeast 466 536 37,000  Level FlightAware ADS-B (KWWD)
09:36PM 39.1960 -74.8793 30° Northeast 467 537 37,000  Level FlightAware ADS-B (KWWD)
09:36PM 39.2734 -74.8210 30° Northeast 470 541 37,000  Level FlightAware ADS-B (KWWD)
09:37PM 39.3396 -74.7710 30° Northeast 478 550 37,000  Level FlightAware ADS-B
09:38PM 39.4273 -74.7045 30° Northeast 471 542 37,000  Level FlightAware ADS-B (KWWD)
09:38PM 39.4996 -74.6496 30° Northeast 471 542 37,000  Level FlightAware ADS-B (KWWD)
09:39PM 39.5830 -74.5861 30° Northeast 471 542 37,000  Level FlightAware ADS-B (KWWD)
09:39PM 39.6087 -74.5666 30° Northeast 478 550 37,000  Level FlightAware ADS-B
09:40PM 39.6951 -74.5006 30° Northeast 471 542 37,000  Level FlightAware ADS-B (KWWD)
09:41PM 39.7745 -74.4397 31° Northeast 470 541 37,000  Level FlightAware ADS-B (KWWD)
09:41PM 39.8455 -74.3852 31° Northeast 468 539 37,000  Level FlightAware ADS-B (KWWD)
09:42PM 39.9195 -74.3281 31° Northeast 466 536 37,000  Level FlightAware ADS-B (KWWD)
09:43PM 39.9956 -74.2695 31° Northeast 466 536 37,000  Level FlightAware ADS-B (KWWD)
09:43PM 40.0745 -74.2085 31° Northeast 473 544 37,000  Level FlightAware ADS-B (KWWD)
09:44PM 40.1412 -74.1565 31° Northeast 472 543 37,000  Level FlightAware ADS-B (KSNC)
09:45PM 40.2245 -74.0917 31° Northeast 472 543 37,000  Level FlightAware ADS-B (KWWD)
09:45PM 40.2904 -74.0402 31° Northeast 474 545 37,000 -180 Level FlightAware ADS-B (KSNC)
09:46PM 40.3618 -73.9688 37° Northeast 487 560 36,800 -600 Descending FlightAware ADS-B (KSNC)
09:47PM 40.4345 -73.8918 39° Northeast 489 563 36,200 -1,200 Descending FlightAware ADS-B (KSNC)
09:47PM 40.4535 -73.8718 39° Northeast 489 563 35,800 -2,100 Descending FlightAware ADS-B (KSNC)
09:47PM 40.5132 -73.8089 39° Northeast 494 568 34,700 -2,280 Descending FlightAware ADS-B (KWWD)
09:48PM 40.5765 -73.7421 39° Northeast 501 577 33,200 -2,580 Descending FlightAware ADS-B (KWWD)
09:49PM 40.6528 -73.6613 39° Northeast 511 588 31,400 -2,640 Descending FlightAware ADS-B (KSNC)
09:49PM 40.7077 -73.6030 39° Northeast 520 598 30,000 -2,700 Descending FlightAware ADS-B (KSNC)
09:50PM 40.7648 -73.5421 39° Northeast 520 598 28,700 -2,580 Descending FlightAware ADS-B (KWWD)
09:50PM 40.8348 -73.4667 39° Northeast 497 572 27,100 -1,320 Descending FlightAware ADS-B (KSNC)
09:51PM 40.9007 -73.3772 46° Northeast 499 574 27,000 -420 Descending FlightAware ADS-B (KSNC)
09:52PM 40.9600 -73.2894 48° Northeast 479 551 26,600 -780 Descending FlightAware ADS-B (KSNC)
09:52PM 41.0188 -73.2027 48° Northeast 485 558 26,000 -1,200 Descending FlightAware ADS-B (KSNC)
09:53PM 41.0793 -73.1136 48° Northeast 489 563 25,000 -1,500 Descending FlightAware ADS-B (KSNC)
09:54PM 41.1357 -73.0295 48° Northeast 483 556 24,100 -1,500 Descending FlightAware ADS-B (KSNC)
09:54PM 41.1977 -72.9367 48° Northeast 480 552 23,000 -840 Descending FlightAware ADS-B (KSNC)
09:55PM 41.2487 -72.8335 57° Northeast 493 567 23,000  Level FlightAware ADS-B (KSNC)
09:56PM 41.2829 -72.7414 64° Northeast 492 566 23,000  Level FlightAware ADS-B (KSNC)
09:56PM 41.3214 -72.6379 64° Northeast 496 571 23,000  Level FlightAware ADS-B (KSNC)
09:57PM 41.3687 -72.5101 64° Northeast 496 571 23,000  Level FlightAware ADS-B (KSNC)
09:58PM 41.4088 -72.4006 64° Northeast 495 570 23,000 -540 Level FlightAware ADS-B (KSNC)
09:58PM 41.4481 -72.2936 64° Northeast 484 557 22,300 -1,440 Descending FlightAware ADS-B (KSNC)
09:59PM 41.4865 -72.1893 64° Northeast 484 557 21,200 -1,560 Descending FlightAware ADS-B (KSNC)
10:00PM 41.5250 -72.0842 64° Northeast 475 547 20,300 -1,200 Descending FlightAware ADS-B (KSNC)
10:01PM 41.5784 -71.9259 66° East 462 532 19,200 -1,080 Descending FlightAware ADS-B (KSNC)
10:02PM 41.6037 -71.8402 68° East 458 527 18,200 -1,020 Descending FlightAware ADS-B (KOWD)
10:03PM 41.6724 -71.6065 68° East 442 509 17,200 -1,320 Descending FlightAware ADS-B
10:04PM 41.7160 -71.4579 68° East 423 487 15,500 -1,920 Descending FlightAware ADS-B (KOWD)
10:04PM 41.7427 -71.3874 63° Northeast 409 471 14,300 -2,280 Descending FlightAware ADS-B
10:05PM 41.7826 -71.2938 60° Northeast 398 458 12,800 -2,280 Descending FlightAware ADS-B
10:05PM 41.8188 -71.2094 60° Northeast 393 452 11,300 -1,620 Descending FlightAware ADS-B
10:06PM 41.8204 -71.2056 61° Northeast 367 422 10,900 -720 Descending FlightAware ADS-B (KOWD)
10:07PM 41.8772 -71.0722 60° Northeast 349 402 10,500 -660 Descending FlightAware ADS-B (KOWD)
10:07PM 41.8928 -71.0362 60° Northeast 331 381 10,300 -660 Descending FlightAware ADS-B
10:08PM 41.9230 -70.9656 60° Northeast 314 361 9,900 -600 Descending FlightAware ADS-B (ZSSL)
10:08PM 41.9364 -70.9348 60° Northeast 310 357 9,700 -600 Descending FlightAware ADS-B (ZSSL)
10:08PM 41.9529 -70.8968 60° Northeast 308 354 9,500 -480 Descending FlightAware ADS-B (KOWD)
10:09PM 41.9635 -70.8719 60° Northeast 307 353 9,400 -540 Descending FlightAware ADS-B (KOWD)
10:09PM 41.9778 -70.8388 60° Northeast 306 352 9,200 -660 Descending FlightAware ADS-B (ZSSL)
10:09PM 41.9899 -70.8106 60° Northeast 303 349 9,000 -660 Descending FlightAware ADS-B (ZSSL)
10:10PM 42.0049 -70.7759 60° Northeast 301 346 8,800 -600 Descending FlightAware ADS-B (ZSSL)
10:10PM 42.0185 -70.7509 54° Northeast 295 339 8,600 -600 Descending FlightAware ADS-B (ZSSL)
10:10PM 42.0417 -70.7162 48° Northeast 293 337 8,400 -480 Descending FlightAware ADS-B (ZSSL)
10:11PM 42.0572 -70.6931 48° Northeast 293 337 8,300 -600 Descending FlightAware ADS-B (ZSSL)
10:11PM 42.0708 -70.6726 48° Northeast 293 337 8,100 -540 Descending FlightAware ADS-B (KOWD)
10:11PM 42.0824 -70.6588 42° Northeast 287 330 8,100 -840 Level FlightAware ADS-B
10:11PM 42.1024 -70.6422 32° Northeast 283 326 7,700 -1,320 Descending FlightAware ADS-B (ZSSL)
10:12PM 42.1189 -70.6286 31° Northeast 282 325 7,400 -1,020 Descending FlightAware ADS-B (KOWD)
10:12PM 42.1407 -70.6106 31° Northeast 277 319 7,100 -780 Descending FlightAware ADS-B (KOWD)
10:12PM 42.1446 -70.6075 31° Northeast 277 319 7,100 -1,080 Level FlightAware ADS-B (KBOS)
10:12PM 42.1677 -70.5889 31° Northeast 269 310 6,700 -1,380 Descending FlightAware ADS-B
10:13PM 42.1660 -70.5902 210° Southwest 274 315 6,300 -1,440 Descending FlightAware ADS-B (KBOS)
10:13PM 42.2057 -70.5623 28° Northeast 259 298 5,900 -900 Descending FlightAware ADS-B (KBOS)
10:13PM 42.2283 -70.5569 10° North 241 277 5,700 -600 Descending FlightAware ADS-B (KBOS)
10:14PM 42.2515 -70.5514 10° North 225 259 5,500 -780 Descending FlightAware ADS-B (KBOS)
10:14PM 42.2672 -70.5515 360° North 207 238 5,200 -900 Descending FlightAware ADS-B (KBOS)
10:14PM 42.2772 -70.5589 331° Northwest 200 230 5,100 -1,500 Descending FlightAware ADS-B
10:15PM 42.2985 -70.5854 317° Northwest 202 232 4,200 -1,500 Descending FlightAware ADS-B (KBOS)
10:15PM 42.3129 -70.6032 318° Northwest 200 230 3,800 -1,080 Descending FlightAware ADS-B (KBOS)
10:15PM 42.3262 -70.6199 317° Northwest 191 220 3,500 -900 Descending FlightAware ADS-B (KBOS)
10:16PM 42.3394 -70.6365 317° Northwest 183 211 3,200 -900 Descending FlightAware ADS-B (KBOS)
10:16PM 42.3525 -70.6528 317° Northwest 179 206 2,900 -600 Descending FlightAware ADS-B (KBOS)
10:16PM 42.3640 -70.6670 318° Northwest 175 201 2,800 -180 Descending FlightAware ADS-B (KBOS)
10:17PM 42.3771 -70.6882 310° West 174 200 2,800  Level FlightAware ADS-B (KBOS)
10:17PM 42.3843 -70.7074 297° West 173 199 2,800  Level FlightAware ADS-B (KBOS)
10:17PM 42.3897 -70.7265 291° West 173 199 2,800  Level FlightAware ADS-B (KBOS)
10:18PM 42.3936 -70.7538 281° West 173 199 2,800  Level FlightAware ADS-B (KBOS)
10:18PM 42.3951 -70.7744 276° West 170 196 2,800 -180 Level FlightAware ADS-B (KBOS)
10:18PM 42.3938 -70.7955 265° West 160 184 2,700 -600 Descending FlightAware ADS-B (KBOS)
10:19PM 42.3908 -70.8159 259° West 159 183 2,400 -780 Descending FlightAware ADS-B (KBOS)
10:19PM 42.3872 -70.8345 255° West 155 178 2,200 -780 Descending FlightAware ADS-B (KBOS)
10:19PM 42.3838 -70.8540 257° West 154 177 1,900 -900 Descending FlightAware ADS-B (KBOS)
10:20PM 42.3805 -70.8724 257° West 154 177 1,600 -840 Descending FlightAware ADS-B (KBOS)
10:20PM 42.3759 -70.8999 257° West 138 159 1,200 -840 Descending FlightAware ADS-B (KBOS)
10:21PM 42.3716 -70.9237 256° West 121 139 800 -720 Descending FlightAware ADS-B (KBOS)
10:21PM 42.3689 -70.9387 256° West 123 142 600 -660 Descending FlightAware ADS-B (KBOS)
10:22PM 42.3661 -70.9546 257° West 124 143 100 -360 Descending FlightAware ADS-B (KBOS)
10:23PM 42.3606 -70.9964 257° West 123 142 100  Level Boston Center